sensor_id;sensor_type;location;lat;lon;timestamp;temperature;humidity
67555;HTU21D;54385;53.516;49.456;2022-09-03T00:01:13;10.78;60.33
67555;HTU21D;54385;53.516;49.456;2022-09-03T00:03:46;10.80;60.50
67555;HTU21D;54385;53.516;49.456;2022-09-03T00:09:11;10.84;59.32
67555;HTU21D;54385;53.516;49.456;2022-09-03T00:11:59;10.87;59.41
67555;HTU21D;54385;53.516;49.456;2022-09-03T00:17:35;10.87;59.39
67555;HTU21D;54385;53.516;49.456;2022-09-03T00:22:54;10.80;59.18
67555;HTU21D;54385;53.516;49.456;2022-09-03T00:25:33;10.79;59.37
67555;HTU21D;54385;53.516;49.456;2022-09-03T00:28:06;10.81;59.57
67555;HTU21D;54385;53.516;49.456;2022-09-03T00:30:38;10.80;59.12
67555;HTU21D;54385;53.516;49.456;2022-09-03T00:33:14;10.75;58.96
67555;HTU21D;54385;53.516;49.456;2022-09-03T00:38:28;10.73;59.79
67555;HTU21D;54385;53.516;49.456;2022-09-03T00:41:20;10.69;60.05
67555;HTU21D;54385;53.516;49.456;2022-09-03T00:43:58;10.60;60.10
67555;HTU21D;54385;53.516;49.456;2022-09-03T00:46:48;10.55;60.29
67555;HTU21D;54385;53.516;49.456;2022-09-03T00:49:45;10.63;60.71
67555;HTU21D;54385;53.516;49.456;2022-09-03T01:00:25;10.68;60.80
67555;HTU21D;54385;53.516;49.456;2022-09-03T01:03:18;10.71;60.89
67555;HTU21D;54385;53.516;49.456;2022-09-03T01:09:20;10.64;61.50
67555;HTU21D;54385;53.516;49.456;2022-09-03T01:14:53;10.52;61.43
67555;HTU21D;54385;53.516;49.456;2022-09-03T01:20:18;10.56;61.73
67555;HTU21D;54385;53.516;49.456;2022-09-03T01:23:01;10.50;62.31
67555;HTU21D;54385;53.516;49.456;2022-09-03T01:25:46;10.39;61.97
67555;HTU21D;54385;53.516;49.456;2022-09-03T01:34:38;10.40;61.78
67555;HTU21D;54385;53.516;49.456;2022-09-03T01:42:50;10.42;63.84
67555;HTU21D;54385;53.516;49.456;2022-09-03T01:48:20;10.28;65.61
67555;HTU21D;54385;53.516;49.456;2022-09-03T01:51:19;10.19;66.37
67555;HTU21D;54385;53.516;49.456;2022-09-03T01:59:36;9.98;66.78
67555;HTU21D;54385;53.516;49.456;2022-09-03T02:02:14;9.90;66.63
67555;HTU21D;54385;53.516;49.456;2022-09-03T02:07:33;9.85;67.20
67555;HTU21D;54385;53.516;49.456;2022-09-03T02:10:02;9.84;67.01
67555;HTU21D;54385;53.516;49.456;2022-09-03T02:12:31;10.01;64.90
67555;HTU21D;54385;53.516;49.456;2022-09-03T02:15:01;10.21;63.90
67555;HTU21D;54385;53.516;49.456;2022-09-03T02:17:30;10.37;62.98
67555;HTU21D;54385;53.516;49.456;2022-09-03T02:19:58;10.49;62.55
67555;HTU21D;54385;53.516;49.456;2022-09-03T02:22:28;10.51;62.57
67555;HTU21D;54385;53.516;49.456;2022-09-03T02:24:55;10.59;62.54
67555;HTU21D;54385;53.516;49.456;2022-09-03T02:27:22;10.58;61.97
67555;HTU21D;54385;53.516;49.456;2022-09-03T02:29:51;10.63;62.28
67555;HTU21D;54385;53.516;49.456;2022-09-03T02:32:17;10.69;61.80
67555;HTU21D;54385;53.516;49.456;2022-09-03T02:34:45;10.83;61.64
67555;HTU21D;54385;53.516;49.456;2022-09-03T02:37:16;10.81;61.84
67555;HTU21D;54385;53.516;49.456;2022-09-03T02:39:43;10.86;61.43
67555;HTU21D;54385;53.516;49.456;2022-09-03T02:42:12;10.86;61.75
67555;HTU21D;54385;53.516;49.456;2022-09-03T02:44:56;10.82;61.70
67555;HTU21D;54385;53.516;49.456;2022-09-03T02:47:30;10.84;61.79
67555;HTU21D;54385;53.516;49.456;2022-09-03T02:49:58;10.98;61.50
67555;HTU21D;54385;53.516;49.456;2022-09-03T02:52:25;10.94;61.89
67555;HTU21D;54385;53.516;49.456;2022-09-03T02:54:51;10.92;62.07
67555;HTU21D;54385;53.516;49.456;2022-09-03T02:57:18;10.92;62.03
67555;HTU21D;54385;53.516;49.456;2022-09-03T02:59:45;10.95;61.86
67555;HTU21D;54385;53.516;49.456;2022-09-03T03:02:12;10.98;62.31
67555;HTU21D;54385;53.516;49.456;2022-09-03T03:04:39;11.00;62.18
67555;HTU21D;54385;53.516;49.456;2022-09-03T03:07:06;11.04;62.08
67555;HTU21D;54385;53.516;49.456;2022-09-03T03:09:33;11.14;61.93
67555;HTU21D;54385;53.516;49.456;2022-09-03T03:12:00;11.17;61.97
67555;HTU21D;54385;53.516;49.456;2022-09-03T03:14:26;11.19;61.92
67555;HTU21D;54385;53.516;49.456;2022-09-03T03:16:53;11.13;62.15
67555;HTU21D;54385;53.516;49.456;2022-09-03T03:19:20;11.04;62.66
67555;HTU21D;54385;53.516;49.456;2022-09-03T03:21:47;11.15;62.50
67555;HTU21D;54385;53.516;49.456;2022-09-03T03:24:14;11.24;62.36
67555;HTU21D;54385;53.516;49.456;2022-09-03T03:26:41;11.31;62.12
67555;HTU21D;54385;53.516;49.456;2022-09-03T03:29:15;11.31;62.20
67555;HTU21D;54385;53.516;49.456;2022-09-03T03:31:45;11.38;62.16
67555;HTU21D;54385;53.516;49.456;2022-09-03T03:34:12;11.52;61.47
67555;HTU21D;54385;53.516;49.456;2022-09-03T03:36:39;11.60;61.70
67555;HTU21D;54385;53.516;49.456;2022-09-03T03:39:05;11.54;61.34
67555;HTU21D;54385;53.516;49.456;2022-09-03T03:41:35;11.43;61.99
67555;HTU21D;54385;53.516;49.456;2022-09-03T03:44:05;11.43;62.20
67555;HTU21D;54385;53.516;49.456;2022-09-03T03:46:37;11.55;61.63
67555;HTU21D;54385;53.516;49.456;2022-09-03T03:49:05;11.55;61.57
67555;HTU21D;54385;53.516;49.456;2022-09-03T03:51:37;11.60;61.38
67555;HTU21D;54385;53.516;49.456;2022-09-03T03:54:05;11.73;61.00
67555;HTU21D;54385;53.516;49.456;2022-09-03T03:56:32;11.82;60.09
67555;HTU21D;54385;53.516;49.456;2022-09-03T03:59:00;11.97;60.02
67555;HTU21D;54385;53.516;49.456;2022-09-03T04:01:28;12.18;59.74
67555;HTU21D;54385;53.516;49.456;2022-09-03T04:03:57;12.14;59.18
67555;HTU21D;54385;53.516;49.456;2022-09-03T04:06:24;12.21;58.82
67555;HTU21D;54385;53.516;49.456;2022-09-03T04:08:51;12.33;58.77
67555;HTU21D;54385;53.516;49.456;2022-09-03T04:11:20;12.37;58.41
67555;HTU21D;54385;53.516;49.456;2022-09-03T04:13:48;12.44;58.63
67555;HTU21D;54385;53.516;49.456;2022-09-03T04:16:22;12.37;57.90
67555;HTU21D;54385;53.516;49.456;2022-09-03T04:18:50;12.35;58.16
67555;HTU21D;54385;53.516;49.456;2022-09-03T04:21:20;12.40;57.83
67555;HTU21D;54385;53.516;49.456;2022-09-03T04:23:48;12.45;58.35
67555;HTU21D;54385;53.516;49.456;2022-09-03T04:26:19;12.51;57.55
67555;HTU21D;54385;53.516;49.456;2022-09-03T04:28:46;12.46;57.98
67555;HTU21D;54385;53.516;49.456;2022-09-03T04:31:18;12.50;58.09
67555;HTU21D;54385;53.516;49.456;2022-09-03T04:33:46;12.44;58.04
67555;HTU21D;54385;53.516;49.456;2022-09-03T04:36:16;12.43;58.54
67555;HTU21D;54385;53.516;49.456;2022-09-03T04:38:45;12.58;57.46
67555;HTU21D;54385;53.516;49.456;2022-09-03T04:41:15;12.72;56.91
67555;HTU21D;54385;53.516;49.456;2022-09-03T04:43:43;12.85;55.97
67555;HTU21D;54385;53.516;49.456;2022-09-03T04:46:12;13.02;55.73
67555;HTU21D;54385;53.516;49.456;2022-09-03T04:48:42;13.17;54.51
67555;HTU21D;54385;53.516;49.456;2022-09-03T04:51:14;13.20;54.86
67555;HTU21D;54385;53.516;49.456;2022-09-03T04:53:43;13.24;54.41
67555;HTU21D;54385;53.516;49.456;2022-09-03T04:56:19;13.31;53.39
67555;HTU21D;54385;53.516;49.456;2022-09-03T04:58:47;13.33;52.83
67555;HTU21D;54385;53.516;49.456;2022-09-03T05:01:17;13.37;52.57
67555;HTU21D;54385;53.516;49.456;2022-09-03T05:03:44;13.20;53.54
67555;HTU21D;54385;53.516;49.456;2022-09-03T05:06:13;13.36;53.71
67555;HTU21D;54385;53.516;49.456;2022-09-03T05:08:43;13.37;53.62
67555;HTU21D;54385;53.516;49.456;2022-09-03T05:11:11;13.46;52.40
67555;HTU21D;54385;53.516;49.456;2022-09-03T05:13:38;13.59;51.33
67555;HTU21D;54385;53.516;49.456;2022-09-03T05:16:08;13.73;51.02
67555;HTU21D;54385;53.516;49.456;2022-09-03T05:18:36;13.76;51.30
67555;HTU21D;54385;53.516;49.456;2022-09-03T05:21:11;13.75;50.89
67555;HTU21D;54385;53.516;49.456;2022-09-03T05:23:49;13.80;50.78
67555;HTU21D;54385;53.516;49.456;2022-09-03T05:26:19;13.89;49.69
67555;HTU21D;54385;53.516;49.456;2022-09-03T05:28:53;13.82;49.76
67555;HTU21D;54385;53.516;49.456;2022-09-03T05:31:22;13.78;50.53
67555;HTU21D;54385;53.516;49.456;2022-09-03T05:33:53;13.80;49.85
67555;HTU21D;54385;53.516;49.456;2022-09-03T05:36:24;13.76;50.36
67555;HTU21D;54385;53.516;49.456;2022-09-03T05:38:51;13.82;50.69
67555;HTU21D;54385;53.516;49.456;2022-09-03T05:41:22;13.99;49.53
67555;HTU21D;54385;53.516;49.456;2022-09-03T05:43:51;14.15;49.69
67555;HTU21D;54385;53.516;49.456;2022-09-03T05:46:22;14.28;48.44
67555;HTU21D;54385;53.516;49.456;2022-09-03T05:48:58;14.28;48.36
67555;HTU21D;54385;53.516;49.456;2022-09-03T05:51:25;14.41;48.15
67555;HTU21D;54385;53.516;49.456;2022-09-03T05:53:52;14.50;48.64
67555;HTU21D;54385;53.516;49.456;2022-09-03T05:56:23;14.48;48.42
67555;HTU21D;54385;53.516;49.456;2022-09-03T05:58:52;14.26;49.03
67555;HTU21D;54385;53.516;49.456;2022-09-03T06:01:21;14.19;49.91
67555;HTU21D;54385;53.516;49.456;2022-09-03T06:03:54;14.14;49.98
67555;HTU21D;54385;53.516;49.456;2022-09-03T06:06:22;14.35;49.01
67555;HTU21D;54385;53.516;49.456;2022-09-03T06:08:56;14.52;49.21
67555;HTU21D;54385;53.516;49.456;2022-09-03T06:11:25;14.58;47.83
67555;HTU21D;54385;53.516;49.456;2022-09-03T06:13:56;14.65;46.67
67555;HTU21D;54385;53.516;49.456;2022-09-03T06:16:23;14.68;45.12
67555;HTU21D;54385;53.516;49.456;2022-09-03T06:18:51;14.65;45.66
67555;HTU21D;54385;53.516;49.456;2022-09-03T06:21:19;14.63;44.94
67555;HTU21D;54385;53.516;49.456;2022-09-03T06:23:50;14.57;45.46
67555;HTU21D;54385;53.516;49.456;2022-09-03T06:26:19;14.44;46.53
67555;HTU21D;54385;53.516;49.456;2022-09-03T06:28:46;14.65;45.93
67555;HTU21D;54385;53.516;49.456;2022-09-03T06:31:17;14.70;45.70
67555;HTU21D;54385;53.516;49.456;2022-09-03T06:33:45;14.79;45.17
67555;HTU21D;54385;53.516;49.456;2022-09-03T06:36:16;14.74;45.12
67555;HTU21D;54385;53.516;49.456;2022-09-03T06:38:44;14.82;45.57
67555;HTU21D;54385;53.516;49.456;2022-09-03T06:41:17;14.88;45.05
67555;HTU21D;54385;53.516;49.456;2022-09-03T06:43:47;14.72;45.70
67555;HTU21D;54385;53.516;49.456;2022-09-03T06:46:16;14.71;45.69
67555;HTU21D;54385;53.516;49.456;2022-09-03T06:48:43;14.74;45.41
67555;HTU21D;54385;53.516;49.456;2022-09-03T06:51:13;14.72;46.12
67555;HTU21D;54385;53.516;49.456;2022-09-03T06:53:43;14.81;45.32
67555;HTU21D;54385;53.516;49.456;2022-09-03T06:56:16;14.91;45.54
67555;HTU21D;54385;53.516;49.456;2022-09-03T06:58:46;14.95;44.87
67555;HTU21D;54385;53.516;49.456;2022-09-03T07:01:19;14.94;45.37
67555;HTU21D;54385;53.516;49.456;2022-09-03T07:03:47;15.13;45.42
67555;HTU21D;54385;53.516;49.456;2022-09-03T07:06:17;15.21;44.72
67555;HTU21D;54385;53.516;49.456;2022-09-03T07:08:46;15.29;44.35
67555;HTU21D;54385;53.516;49.456;2022-09-03T07:11:19;15.39;43.42
67555;HTU21D;54385;53.516;49.456;2022-09-03T07:13:49;15.37;44.26
67555;HTU21D;54385;53.516;49.456;2022-09-03T07:16:22;15.42;43.14
67555;HTU21D;54385;53.516;49.456;2022-09-03T07:18:50;15.36;43.67
67555;HTU21D;54385;53.516;49.456;2022-09-03T07:21:21;15.36;43.51
67555;HTU21D;54385;53.516;49.456;2022-09-03T07:23:49;15.55;42.68
67555;HTU21D;54385;53.516;49.456;2022-09-03T07:26:29;15.87;42.19
67555;HTU21D;54385;53.516;49.456;2022-09-03T07:28:58;15.88;41.93
67555;HTU21D;54385;53.516;49.456;2022-09-03T07:31:31;15.71;42.24
67555;HTU21D;54385;53.516;49.456;2022-09-03T07:34:01;15.76;42.10
67555;HTU21D;54385;53.516;49.456;2022-09-03T07:36:38;15.96;41.56
67555;HTU21D;54385;53.516;49.456;2022-09-03T07:39:14;15.58;40.81
67555;HTU21D;54385;53.516;49.456;2022-09-03T07:41:43;15.26;42.45
67555;HTU21D;54385;53.516;49.456;2022-09-03T07:44:12;15.14;43.22
67555;HTU21D;54385;53.516;49.456;2022-09-03T07:46:44;15.25;43.25
67555;HTU21D;54385;53.516;49.456;2022-09-03T07:49:14;15.10;43.60
67555;HTU21D;54385;53.516;49.456;2022-09-03T07:51:41;15.00;44.34
67555;HTU21D;54385;53.516;49.456;2022-09-03T07:54:10;15.36;43.91
67555;HTU21D;54385;53.516;49.456;2022-09-03T07:56:38;15.70;43.04
67555;HTU21D;54385;53.516;49.456;2022-09-03T07:59:10;15.92;42.18
67555;HTU21D;54385;53.516;49.456;2022-09-03T08:01:39;15.60;42.42
67555;HTU21D;54385;53.516;49.456;2022-09-03T08:04:07;15.42;43.19
67555;HTU21D;54385;53.516;49.456;2022-09-03T08:06:37;15.33;43.32
67555;HTU21D;54385;53.516;49.456;2022-09-03T08:09:08;15.62;43.16
67555;HTU21D;54385;53.516;49.456;2022-09-03T08:11:37;15.58;42.60
67555;HTU21D;54385;53.516;49.456;2022-09-03T08:14:14;15.44;43.54
67555;HTU21D;54385;53.516;49.456;2022-09-03T08:16:44;15.47;42.75
67555;HTU21D;54385;53.516;49.456;2022-09-03T08:19:16;15.44;43.60
67555;HTU21D;54385;53.516;49.456;2022-09-03T08:21:46;15.56;42.87
67555;HTU21D;54385;53.516;49.456;2022-09-03T08:24:15;15.69;41.88
67555;HTU21D;54385;53.516;49.456;2022-09-03T08:26:44;15.85;41.53
67555;HTU21D;54385;53.516;49.456;2022-09-03T08:29:12;15.86;41.97
67555;HTU21D;54385;53.516;49.456;2022-09-03T08:31:40;16.07;41.70
67555;HTU21D;54385;53.516;49.456;2022-09-03T08:34:09;16.33;41.21
67555;HTU21D;54385;53.516;49.456;2022-09-03T08:36:38;16.43;41.62
67555;HTU21D;54385;53.516;49.456;2022-09-03T08:39:11;16.45;41.93
67555;HTU21D;54385;53.516;49.456;2022-09-03T08:44:55;16.45;40.83
67555;HTU21D;54385;53.516;49.456;2022-09-03T08:47:29;16.49;41.26
67555;HTU21D;54385;53.516;49.456;2022-09-03T08:52:47;16.43;41.71
67555;HTU21D;54385;53.516;49.456;2022-09-03T08:55:20;16.69;41.10
67555;HTU21D;54385;53.516;49.456;2022-09-03T09:00:57;16.99;40.68
67555;HTU21D;54385;53.516;49.456;2022-09-03T09:06:54;17.43;39.23
67555;HTU21D;54385;53.516;49.456;2022-09-03T09:15:12;17.59;38.88
67555;HTU21D;54385;53.516;49.456;2022-09-03T09:18:15;17.48;39.29
67555;HTU21D;54385;53.516;49.456;2022-09-03T09:21:15;17.32;40.87
67555;HTU21D;54385;53.516;49.456;2022-09-03T09:23:49;17.21;40.08
67555;HTU21D;54385;53.516;49.456;2022-09-03T09:29:09;16.69;41.29
67555;HTU21D;54385;53.516;49.456;2022-09-03T09:31:39;16.48;40.84
67555;HTU21D;54385;53.516;49.456;2022-09-03T09:34:11;16.51;40.67
67555;HTU21D;54385;53.516;49.456;2022-09-03T09:39:16;16.87;40.20
67555;HTU21D;54385;53.516;49.456;2022-09-03T09:42:07;17.14;39.63
67555;HTU21D;54385;53.516;49.456;2022-09-03T09:44:39;17.43;39.30
67555;HTU21D;54385;53.516;49.456;2022-09-03T09:47:15;17.72;39.30
67555;HTU21D;54385;53.516;49.456;2022-09-03T09:49:58;18.09;38.17
67555;HTU21D;54385;53.516;49.456;2022-09-03T09:52:27;18.49;37.66
67555;HTU21D;54385;53.516;49.456;2022-09-03T09:55:09;18.69;37.17
67555;HTU21D;54385;53.516;49.456;2022-09-03T09:57:36;19.16;36.59
67555;HTU21D;54385;53.516;49.456;2022-09-03T10:00:11;19.12;35.78
67555;HTU21D;54385;53.516;49.456;2022-09-03T10:02:49;19.12;35.87
67555;HTU21D;54385;53.516;49.456;2022-09-03T10:05:30;19.37;35.73
67555;HTU21D;54385;53.516;49.456;2022-09-03T10:08:03;19.45;35.02
67555;HTU21D;54385;53.516;49.456;2022-09-03T10:10:45;19.58;35.14
67555;HTU21D;54385;53.516;49.456;2022-09-03T10:13:19;19.71;34.75
67555;HTU21D;54385;53.516;49.456;2022-09-03T10:18:57;19.56;34.21
67555;HTU21D;54385;53.516;49.456;2022-09-03T10:21:44;19.27;35.21
67555;HTU21D;54385;53.516;49.456;2022-09-03T10:27:26;18.98;36.37
67555;HTU21D;54385;53.516;49.456;2022-09-03T10:29:55;19.17;36.03
67555;HTU21D;54385;53.516;49.456;2022-09-03T10:35:31;19.23;35.37
67555;HTU21D;54385;53.516;49.456;2022-09-03T10:38:14;19.76;34.05
67555;HTU21D;54385;53.516;49.456;2022-09-03T10:44:17;20.65;32.46
67555;HTU21D;54385;53.516;49.456;2022-09-03T10:55:08;21.44;31.57
67555;HTU21D;54385;53.516;49.456;2022-09-03T11:00:45;20.65;31.90
67555;HTU21D;54385;53.516;49.456;2022-09-03T11:06:12;20.66;32.51
67555;HTU21D;54385;53.516;49.456;2022-09-03T11:08:43;20.56;32.72
67555;HTU21D;54385;53.516;49.456;2022-09-03T11:11:18;20.48;32.63
67555;HTU21D;54385;53.516;49.456;2022-09-03T11:14:08;21.03;31.45
67555;HTU21D;54385;53.516;49.456;2022-09-03T11:16:53;21.05;31.66
67555;HTU21D;54385;53.516;49.456;2022-09-03T11:19:33;21.10;30.90
67555;HTU21D;54385;53.516;49.456;2022-09-03T11:22:04;20.88;31.22
67555;HTU21D;54385;53.516;49.456;2022-09-03T11:24:32;20.75;31.37
67555;HTU21D;54385;53.516;49.456;2022-09-03T11:30:07;21.23;31.11
67555;HTU21D;54385;53.516;49.456;2022-09-03T11:32:55;20.74;31.83
67555;HTU21D;54385;53.516;49.456;2022-09-03T11:38:03;20.61;32.19
67555;HTU21D;54385;53.516;49.456;2022-09-03T11:40:41;20.44;31.87
67555;HTU21D;54385;53.516;49.456;2022-09-03T11:51:29;19.91;33.00
67555;HTU21D;54385;53.516;49.456;2022-09-03T11:54:02;19.70;32.55
67555;HTU21D;54385;53.516;49.456;2022-09-03T11:56:31;19.86;32.66
67555;HTU21D;54385;53.516;49.456;2022-09-03T11:59:16;20.04;32.68
67555;HTU21D;54385;53.516;49.456;2022-09-03T12:04:41;19.51;33.67
67555;HTU21D;54385;53.516;49.456;2022-09-03T12:07:44;19.55;34.15
67555;HTU21D;54385;53.516;49.456;2022-09-03T12:13:20;20.46;32.14
67555;HTU21D;54385;53.516;49.456;2022-09-03T12:15:54;21.23;31.04
67555;HTU21D;54385;53.516;49.456;2022-09-03T12:18:30;21.47;30.46
67555;HTU21D;54385;53.516;49.456;2022-09-03T12:21:05;21.36;30.24
67555;HTU21D;54385;53.516;49.456;2022-09-03T12:23:44;20.59;31.27
67555;HTU21D;54385;53.516;49.456;2022-09-03T12:26:23;20.56;31.73
67555;HTU21D;54385;53.516;49.456;2022-09-03T12:28:57;20.40;31.07
67555;HTU21D;54385;53.516;49.456;2022-09-03T12:31:27;20.13;31.90
67555;HTU21D;54385;53.516;49.456;2022-09-03T12:34:02;19.83;32.42
67555;HTU21D;54385;53.516;49.456;2022-09-03T12:39:15;20.13;32.15
67555;HTU21D;54385;53.516;49.456;2022-09-03T12:42:04;20.49;31.83
67555;HTU21D;54385;53.516;49.456;2022-09-03T12:49:42;20.68;31.06
67555;HTU21D;54385;53.516;49.456;2022-09-03T12:54:49;20.22;32.41
67555;HTU21D;54385;53.516;49.456;2022-09-03T12:57:21;20.15;32.22
67555;HTU21D;54385;53.516;49.456;2022-09-03T12:59:52;19.77;32.23
67555;HTU21D;54385;53.516;49.456;2022-09-03T13:02:36;19.59;32.96
67555;HTU21D;54385;53.516;49.456;2022-09-03T13:05:05;19.46;33.57
67555;HTU21D;54385;53.516;49.456;2022-09-03T13:07:53;19.27;33.83
67555;HTU21D;54385;53.516;49.456;2022-09-03T13:10:37;19.41;33.53
67555;HTU21D;54385;53.516;49.456;2022-09-03T13:13:25;19.42;33.79
67555;HTU21D;54385;53.516;49.456;2022-09-03T13:22:29;19.29;35.18
67555;HTU21D;54385;53.516;49.456;2022-09-03T13:30:47;19.11;35.08
67555;HTU21D;54385;53.516;49.456;2022-09-03T13:33:37;19.01;35.71
67555;HTU21D;54385;53.516;49.456;2022-09-03T13:36:19;18.98;35.71
67555;HTU21D;54385;53.516;49.456;2022-09-03T13:38:53;18.91;35.99
67555;HTU21D;54385;53.516;49.456;2022-09-03T13:41:53;18.99;36.17
67555;HTU21D;54385;53.516;49.456;2022-09-03T13:44:36;18.91;35.85
67555;HTU21D;54385;53.516;49.456;2022-09-03T13:52:47;18.88;36.65
67555;HTU21D;54385;53.516;49.456;2022-09-03T13:55:23;18.88;36.61
67555;HTU21D;54385;53.516;49.456;2022-09-03T14:01:06;18.82;36.83
67555;HTU21D;54385;53.516;49.456;2022-09-03T14:03:52;18.79;36.87
67555;HTU21D;54385;53.516;49.456;2022-09-03T14:07:41;18.94;37.69
67555;HTU21D;54385;53.516;49.456;2022-09-03T14:10:14;19.40;36.20
67555;HTU21D;54385;53.516;49.456;2022-09-03T14:17:01;19.76;36.07
67555;HTU21D;54385;53.516;49.456;2022-09-03T14:19:16;19.66;35.60
67555;HTU21D;54385;53.516;49.456;2022-09-03T14:21:52;19.61;36.09
67555;HTU21D;54385;53.516;49.456;2022-09-03T14:27:25;20.21;34.63
67555;HTU21D;54385;53.516;49.456;2022-09-03T14:29:59;20.35;34.01
67555;HTU21D;54385;53.516;49.456;2022-09-03T14:44:10;20.35;34.38
67555;HTU21D;54385;53.516;49.456;2022-09-03T15:06:10;19.16;36.50
67555;HTU21D;54385;53.516;49.456;2022-09-03T15:09:06;18.89;39.49
67555;HTU21D;54385;53.516;49.456;2022-09-03T15:12:28;18.57;41.58
67555;HTU21D;54385;53.516;49.456;2022-09-03T15:14:54;18.39;40.62
67555;HTU21D;54385;53.516;49.456;2022-09-03T15:17:45;18.18;41.51
67555;HTU21D;54385;53.516;49.456;2022-09-03T15:20:42;18.00;42.21
67555;HTU21D;54385;53.516;49.456;2022-09-03T15:32:26;17.18;44.35
67555;HTU21D;54385;53.516;49.456;2022-09-03T15:35:29;17.01;45.66
67555;HTU21D;54385;53.516;49.456;2022-09-03T15:38:23;16.85;46.02
67555;HTU21D;54385;53.516;49.456;2022-09-03T15:40:54;16.67;46.54
67555;HTU21D;54385;53.516;49.456;2022-09-03T15:43:30;16.59;47.12
67555;HTU21D;54385;53.516;49.456;2022-09-03T15:46:10;16.52;47.79
67555;HTU21D;54385;53.516;49.456;2022-09-03T15:49:02;16.30;49.95
67555;HTU21D;54385;53.516;49.456;2022-09-03T15:58:05;15.78;52.69
67555;HTU21D;54385;53.516;49.456;2022-09-03T16:01:10;15.75;53.63
67555;HTU21D;54385;53.516;49.456;2022-09-03T16:03:53;15.63;53.94
67555;HTU21D;54385;53.516;49.456;2022-09-03T16:09:34;15.32;55.87
67555;HTU21D;54385;53.516;49.456;2022-09-03T16:14:49;15.26;55.74
67555;HTU21D;54385;53.516;49.456;2022-09-03T16:17:25;15.23;55.62
67555;HTU21D;54385;53.516;49.456;2022-09-03T16:25:20;14.92;56.25
67555;HTU21D;54385;53.516;49.456;2022-09-03T16:33:18;14.69;57.37
67555;HTU21D;54385;53.516;49.456;2022-09-03T16:36:05;14.55;58.03
67555;HTU21D;54385;53.516;49.456;2022-09-03T16:41:42;14.40;58.67
67555;HTU21D;54385;53.516;49.456;2022-09-03T16:47:24;14.32;58.55
67555;HTU21D;54385;53.516;49.456;2022-09-03T16:52:37;14.11;59.22
67555;HTU21D;54385;53.516;49.456;2022-09-03T17:14:51;13.96;60.53
67555;HTU21D;54385;53.516;49.456;2022-09-03T17:17:46;13.95;60.43
67555;HTU21D;54385;53.516;49.456;2022-09-03T17:25:38;13.66;61.30
67555;HTU21D;54385;53.516;49.456;2022-09-03T17:28:18;13.61;61.25
67555;HTU21D;54385;53.516;49.456;2022-09-03T17:30:57;13.62;61.63
67555;HTU21D;54385;53.516;49.456;2022-09-03T17:36:11;13.61;61.09
67555;HTU21D;54385;53.516;49.456;2022-09-03T17:39:07;13.62;61.08
67555;HTU21D;54385;53.516;49.456;2022-09-03T17:41:45;13.62;60.73
67555;HTU21D;54385;53.516;49.456;2022-09-03T17:47:27;13.60;61.25
67555;HTU21D;54385;53.516;49.456;2022-09-03T18:01:14;13.41;62.04
67555;HTU21D;54385;53.516;49.456;2022-09-03T18:03:58;13.34;62.17
67555;HTU21D;54385;53.516;49.456;2022-09-03T18:14:38;13.19;61.05
67555;HTU21D;54385;53.516;49.456;2022-09-03T18:17:12;13.18;60.96
67555;HTU21D;54385;53.516;49.456;2022-09-03T18:20:02;13.06;61.31
67555;HTU21D;54385;53.516;49.456;2022-09-03T18:25:44;13.00;61.61
67555;HTU21D;54385;53.516;49.456;2022-09-03T18:29:04;12.97;62.21
67555;HTU21D;54385;53.516;49.456;2022-09-03T18:31:51;13.00;61.79
67555;HTU21D;54385;53.516;49.456;2022-09-03T18:34:37;12.94;62.06
67555;HTU21D;54385;53.516;49.456;2022-09-03T18:37:24;12.89;61.96
67555;HTU21D;54385;53.516;49.456;2022-09-03T18:40:15;12.85;61.83
67555;HTU21D;54385;53.516;49.456;2022-09-03T18:43:17;12.90;61.67
67555;HTU21D;54385;53.516;49.456;2022-09-03T18:46:34;12.95;61.86
67555;HTU21D;54385;53.516;49.456;2022-09-03T18:49:26;12.88;61.41
67555;HTU21D;54385;53.516;49.456;2022-09-03T18:52:29;12.86;61.31
67555;HTU21D;54385;53.516;49.456;2022-09-03T18:55:21;12.86;61.39
67555;HTU21D;54385;53.516;49.456;2022-09-03T19:01:39;12.80;61.49
67555;HTU21D;54385;53.516;49.456;2022-09-03T19:10:28;12.75;61.91
67555;HTU21D;54385;53.516;49.456;2022-09-03T19:16:28;12.62;63.39
67555;HTU21D;54385;53.516;49.456;2022-09-03T19:19:45;12.63;64.05
67555;HTU21D;54385;53.516;49.456;2022-09-03T19:22:37;12.60;64.03
67555;HTU21D;54385;53.516;49.456;2022-09-03T19:25:25;12.53;63.79
67555;HTU21D;54385;53.516;49.456;2022-09-03T19:28:25;12.52;64.42
67555;HTU21D;54385;53.516;49.456;2022-09-03T19:37:36;12.38;65.38
67555;HTU21D;54385;53.516;49.456;2022-09-03T19:47:03;12.14;65.61
67555;HTU21D;54385;53.516;49.456;2022-09-03T19:52:57;12.11;66.55
67555;HTU21D;54385;53.516;49.456;2022-09-03T19:55:52;12.11;66.58
67555;HTU21D;54385;53.516;49.456;2022-09-03T19:58:40;12.11;67.02
67555;HTU21D;54385;53.516;49.456;2022-09-03T20:01:32;12.15;66.61
67555;HTU21D;54385;53.516;49.456;2022-09-03T20:04:19;11.99;67.04
67555;HTU21D;54385;53.516;49.456;2022-09-03T20:07:08;11.91;67.35
67555;HTU21D;54385;53.516;49.456;2022-09-03T20:09:56;11.97;67.15
67555;HTU21D;54385;53.516;49.456;2022-09-03T20:12:58;11.98;67.52
67555;HTU21D;54385;53.516;49.456;2022-09-03T20:15:37;12.07;67.31
67555;HTU21D;54385;53.516;49.456;2022-09-03T20:18:09;12.10;67.43
67555;HTU21D;54385;53.516;49.456;2022-09-03T20:24:05;12.26;67.54
67555;HTU21D;54385;53.516;49.456;2022-09-03T20:34:47;12.48;67.08
67555;HTU21D;54385;53.516;49.456;2022-09-03T20:37:38;12.47;67.43
67555;HTU21D;54385;53.516;49.456;2022-09-03T20:46:34;12.51;67.46
67555;HTU21D;54385;53.516;49.456;2022-09-03T20:52:41;12.55;67.41
67555;HTU21D;54385;53.516;49.456;2022-09-03T20:54:54;12.52;67.16
67555;HTU21D;54385;53.516;49.456;2022-09-03T20:59:55;12.53;67.63
67555;HTU21D;54385;53.516;49.456;2022-09-03T21:02:32;12.63;67.77
67555;HTU21D;54385;53.516;49.456;2022-09-03T21:22:00;12.41;68.84
67555;HTU21D;54385;53.516;49.456;2022-09-03T21:24:49;12.43;68.41
67555;HTU21D;54385;53.516;49.456;2022-09-03T21:27:22;12.48;68.55
67555;HTU21D;54385;53.516;49.456;2022-09-03T21:32:43;12.46;68.85
67555;HTU21D;54385;53.516;49.456;2022-09-03T21:35:29;12.40;69.10
67555;HTU21D;54385;53.516;49.456;2022-09-03T21:38:20;12.43;68.82
67555;HTU21D;54385;53.516;49.456;2022-09-03T21:40:57;12.46;68.87
67555;HTU21D;54385;53.516;49.456;2022-09-03T21:43:38;12.50;69.20
67555;HTU21D;54385;53.516;49.456;2022-09-03T21:46:46;12.56;69.36
67555;HTU21D;54385;53.516;49.456;2022-09-03T21:49:19;12.61;69.09
67555;HTU21D;54385;53.516;49.456;2022-09-03T21:52:07;12.67;68.59
67555;HTU21D;54385;53.516;49.456;2022-09-03T21:54:34;12.73;68.19